sensor_id;sensor_type;location;lat;lon;timestamp;P1;durP1;ratioP1;P2;durP2;ratioP2
65597;SDS011;52267;51.984;20.956;2022-12-07T18:41:32;16.80;;;8.80;;
65597;SDS011;52267;51.984;20.956;2022-12-07T18:44:02;20.50;;;9.70;;
65597;SDS011;52267;51.984;20.956;2022-12-07T18:46:32;14.50;;;8.00;;
65597;SDS011;52267;51.984;20.956;2022-12-07T18:48:59;15.70;;;9.80;;
65597;SDS011;52267;51.984;20.956;2022-12-07T18:51:30;16.50;;;10.00;;
65597;SDS011;52267;51.984;20.956;2022-12-07T18:53:58;17.70;;;11.30;;
65597;SDS011;52267;51.984;20.956;2022-12-07T18:56:28;13.80;;;8.80;;
65597;SDS011;52267;51.984;20.956;2022-12-07T18:59:00;22.20;;;12.20;;
65597;SDS011;52267;51.984;20.956;2022-12-07T19:01:50;20.70;;;12.00;;
65597;SDS011;52267;51.984;20.956;2022-12-07T19:04:20;17.50;;;9.10;;
65597;SDS011;52267;51.984;20.956;2022-12-07T19:06:49;15.60;;;7.90;;
65597;SDS011;52267;51.984;20.956;2022-12-07T19:09:20;17.90;;;8.80;;
65597;SDS011;52267;51.984;20.956;2022-12-07T19:11:47;14.60;;;9.80;;
65597;SDS011;52267;51.984;20.956;2022-12-07T19:14:28;15.40;;;8.70;;
65597;SDS011;52267;51.984;20.956;2022-12-07T19:17:04;14.70;;;8.10;;
65597;SDS011;52267;51.984;20.956;2022-12-07T19:19:44;19.70;;;9.70;;
65597;SDS011;52267;51.984;20.956;2022-12-07T19:22:16;11.90;;;7.90;;
65597;SDS011;52267;51.984;20.956;2022-12-07T19:24:51;16.40;;;9.30;;
65597;SDS011;52267;51.984;20.956;2022-12-07T19:27:21;13.60;;;8.90;;
65597;SDS011;52267;51.984;20.956;2022-12-07T19:29:50;15.40;;;8.70;;
65597;SDS011;52267;51.984;20.956;2022-12-07T19:32:18;13.70;;;8.40;;
65597;SDS011;52267;51.984;20.956;2022-12-07T19:34:49;15.10;;;8.90;;
65597;SDS011;52267;51.984;20.956;2022-12-07T19:37:17;16.70;;;9.80;;
65597;SDS011;52267;51.984;20.956;2022-12-07T19:39:46;13.60;;;8.90;;
65597;SDS011;52267;51.984;20.956;2022-12-07T19:42:14;12.90;;;8.50;;
65597;SDS011;52267;51.984;20.956;2022-12-07T19:44:44;11.60;;;6.30;;
65597;SDS011;52267;51.984;20.956;2022-12-07T19:47:12;12.00;;;8.50;;
65597;SDS011;52267;51.984;20.956;2022-12-07T19:49:44;10.80;;;6.50;;
65597;SDS011;52267;51.984;20.956;2022-12-07T19:52:14;12.60;;;7.90;;
65597;SDS011;52267;51.984;20.956;2022-12-07T19:54:42;11.50;;;7.40;;
65597;SDS011;52267;51.984;20.956;2022-12-07T19:57:10;9.80;;;6.50;;
65597;SDS011;52267;51.984;20.956;2022-12-07T19:59:42;10.50;;;7.00;;
65597;SDS011;52267;51.984;20.956;2022-12-07T20:02:13;12.90;;;8.10;;
65597;SDS011;52267;51.984;20.956;2022-12-07T20:04:45;12.50;;;7.70;;
65597;SDS011;52267;51.984;20.956;2022-12-07T20:07:13;11.10;;;6.10;;
65597;SDS011;52267;51.984;20.956;2022-12-07T20:09:41;11.20;;;7.20;;
65597;SDS011;52267;51.984;20.956;2022-12-07T20:12:10;15.00;;;8.20;;
65597;SDS011;52267;51.984;20.956;2022-12-07T20:14:56;13.30;;;7.80;;
65597;SDS011;52267;51.984;20.956;2022-12-07T20:17:26;11.80;;;6.40;;
65597;SDS011;52267;51.984;20.956;2022-12-07T20:19:55;14.10;;;8.40;;
65597;SDS011;52267;51.984;20.956;2022-12-07T20:22:23;10.00;;;6.10;;
65597;SDS011;52267;51.984;20.956;2022-12-07T20:24:50;13.10;;;8.00;;
65597;SDS011;52267;51.984;20.956;2022-12-07T20:27:18;12.50;;;7.10;;
65597;SDS011;52267;51.984;20.956;2022-12-07T20:29:47;11.00;;;7.10;;
65597;SDS011;52267;51.984;20.956;2022-12-07T20:32:17;9.20;;;5.90;;
65597;SDS011;52267;51.984;20.956;2022-12-07T20:34:49;8.50;;;5.70;;
65597;SDS011;52267;51.984;20.956;2022-12-07T20:37:17;11.00;;;5.80;;
65597;SDS011;52267;51.984;20.956;2022-12-07T20:39:45;10.50;;;5.80;;
65597;SDS011;52267;51.984;20.956;2022-12-07T20:42:13;10.70;;;6.60;;
65597;SDS011;52267;51.984;20.956;2022-12-07T20:45:00;9.80;;;5.60;;
65597;SDS011;52267;51.984;20.956;2022-12-07T20:47:30;7.30;;;4.60;;
65597;SDS011;52267;51.984;20.956;2022-12-07T20:50:00;10.20;;;5.40;;
65597;SDS011;52267;51.984;20.956;2022-12-07T20:52:29;12.60;;;6.20;;
65597;SDS011;52267;51.984;20.956;2022-12-07T20:54:58;9.00;;;6.00;;
65597;SDS011;52267;51.984;20.956;2022-12-07T20:57:25;11.00;;;6.00;;
65597;SDS011;52267;51.984;20.956;2022-12-07T20:59:52;10.70;;;5.90;;
65597;SDS011;52267;51.984;20.956;2022-12-07T21:02:20;8.90;;;5.50;;
65597;SDS011;52267;51.984;20.956;2022-12-07T21:04:48;11.30;;;6.10;;
65597;SDS011;52267;51.984;20.956;2022-12-07T21:07:15;8.90;;;5.50;;
65597;SDS011;52267;51.984;20.956;2022-12-07T21:09:44;11.20;;;6.30;;
65597;SDS011;52267;51.984;20.956;2022-12-07T21:12:12;8.10;;;5.40;;
65597;SDS011;52267;51.984;20.956;2022-12-07T21:14:40;12.10;;;5.90;;
65597;SDS011;52267;51.984;20.956;2022-12-07T21:17:08;12.50;;;6.20;;
65597;SDS011;52267;51.984;20.956;2022-12-07T21:19:36;7.70;;;4.20;;
65597;SDS011;52267;51.984;20.956;2022-12-07T21:22:04;12.70;;;6.70;;
65597;SDS011;52267;51.984;20.956;2022-12-07T21:24:31;9.00;;;5.10;;
65597;SDS011;52267;51.984;20.956;2022-12-07T21:26:58;9.30;;;5.60;;
65597;SDS011;52267;51.984;20.956;2022-12-07T21:29:25;9.60;;;5.60;;
65597;SDS011;52267;51.984;20.956;2022-12-07T21:31:53;11.40;;;7.00;;
65597;SDS011;52267;51.984;20.956;2022-12-07T21:34:20;9.40;;;5.00;;
65597;SDS011;52267;51.984;20.956;2022-12-07T21:36:47;11.60;;;6.70;;
65597;SDS011;52267;51.984;20.956;2022-12-07T21:39:14;12.10;;;7.40;;
65597;SDS011;52267;51.984;20.956;2022-12-07T21:41:41;7.70;;;4.60;;
65597;SDS011;52267;51.984;20.956;2022-12-07T21:44:08;10.40;;;6.20;;
65597;SDS011;52267;51.984;20.956;2022-12-07T21:46:38;10.70;;;5.70;;
65597;SDS011;52267;51.984;20.956;2022-12-07T21:49:09;7.00;;;3.60;;
65597;SDS011;52267;51.984;20.956;2022-12-07T21:51:41;6.70;;;3.50;;
65597;SDS011;52267;51.984;20.956;2022-12-07T21:54:11;11.00;;;5.80;;
65597;SDS011;52267;51.984;20.956;2022-12-07T21:56:41;11.10;;;6.40;;
65597;SDS011;52267;51.984;20.956;2022-12-07T21:59:15;12.60;;;7.20;;
65597;SDS011;52267;51.984;20.956;2022-12-07T22:01:50;9.60;;;5.30;;
65597;SDS011;52267;51.984;20.956;2022-12-07T22:04:24;8.70;;;4.40;;
65597;SDS011;52267;51.984;20.956;2022-12-07T22:06:53;10.40;;;5.80;;
65597;SDS011;52267;51.984;20.956;2022-12-07T22:09:23;11.10;;;6.10;;
65597;SDS011;52267;51.984;20.956;2022-12-07T22:11:51;11.60;;;5.90;;
65597;SDS011;52267;51.984;20.956;2022-12-07T22:14:19;10.90;;;6.60;;
65597;SDS011;52267;51.984;20.956;2022-12-07T22:17:05;10.60;;;5.50;;
65597;SDS011;52267;51.984;20.956;2022-12-07T22:19:33;13.60;;;6.80;;
65597;SDS011;52267;51.984;20.956;2022-12-07T22:22:01;16.60;;;8.60;;
65597;SDS011;52267;51.984;20.956;2022-12-07T22:24:28;10.40;;;4.50;;
65597;SDS011;52267;51.984;20.956;2022-12-07T22:26:56;13.40;;;7.60;;
65597;SDS011;52267;51.984;20.956;2022-12-07T22:29:24;14.80;;;7.30;;
65597;SDS011;52267;51.984;20.956;2022-12-07T22:31:51;12.20;;;6.70;;
65597;SDS011;52267;51.984;20.956;2022-12-07T22:34:18;11.90;;;6.30;;
65597;SDS011;52267;51.984;20.956;2022-12-07T22:36:45;20.20;;;8.40;;
65597;SDS011;52267;51.984;20.956;2022-12-07T22:39:13;14.00;;;7.10;;
65597;SDS011;52267;51.984;20.956;2022-12-07T22:41:40;20.50;;;9.60;;
65597;SDS011;52267;51.984;20.956;2022-12-07T22:44:07;12.30;;;8.20;;
65597;SDS011;52267;51.984;20.956;2022-12-07T22:46:35;17.00;;;8.90;;
65597;SDS011;52267;51.984;20.956;2022-12-07T22:49:03;15.40;;;7.30;;
65597;SDS011;52267;51.984;20.956;2022-12-07T22:51:35;17.10;;;8.10;;
65597;SDS011;52267;51.984;20.956;2022-12-07T22:54:09;18.80;;;8.30;;
65597;SDS011;52267;51.984;20.956;2022-12-07T22:56:40;16.70;;;9.30;;
65597;SDS011;52267;51.984;20.956;2022-12-07T22:59:07;19.80;;;9.00;;
65597;SDS011;52267;51.984;20.956;2022-12-07T23:01:35;14.30;;;6.90;;
65597;SDS011;52267;51.984;20.956;2022-12-07T23:04:03;7.10;;;3.50;;
65597;SDS011;52267;51.984;20.956;2022-12-07T23:06:32;13.90;;;6.50;;
65597;SDS011;52267;51.984;20.956;2022-12-07T23:09:02;12.00;;;6.30;;
65597;SDS011;52267;51.984;20.956;2022-12-07T23:11:36;10.00;;;5.40;;
65597;SDS011;52267;51.984;20.956;2022-12-07T23:14:29;8.80;;;5.20;;
65597;SDS011;52267;51.984;20.956;2022-12-07T23:16:58;15.40;;;7.80;;
65597;SDS011;52267;51.984;20.956;2022-12-07T23:19:26;12.70;;;7.00;;
65597;SDS011;52267;51.984;20.956;2022-12-07T23:21:53;10.30;;;5.90;;
65597;SDS011;52267;51.984;20.956;2022-12-07T23:24:21;10.60;;;5.50;;
65597;SDS011;52267;51.984;20.956;2022-12-07T23:26:48;10.40;;;4.80;;
65597;SDS011;52267;51.984;20.956;2022-12-07T23:29:15;14.10;;;6.80;;
65597;SDS011;52267;51.984;20.956;2022-12-07T23:31:42;9.50;;;5.50;;
65597;SDS011;52267;51.984;20.956;2022-12-07T23:34:09;9.10;;;5.70;;
65597;SDS011;52267;51.984;20.956;2022-12-07T23:36:36;9.50;;;6.10;;
65597;SDS011;52267;51.984;20.956;2022-12-07T23:39:03;8.40;;;4.80;;
65597;SDS011;52267;51.984;20.956;2022-12-07T23:41:31;10.20;;;5.20;;
65597;SDS011;52267;51.984;20.956;2022-12-07T23:43:59;12.50;;;6.00;;
65597;SDS011;52267;51.984;20.956;2022-12-07T23:46:29;12.80;;;6.90;;
65597;SDS011;52267;51.984;20.956;2022-12-07T23:48:59;14.40;;;7.00;;
65597;SDS011;52267;51.984;20.956;2022-12-07T23:51:27;13.40;;;7.70;;
65597;SDS011;52267;51.984;20.956;2022-12-07T23:53:54;12.30;;;6.90;;
65597;SDS011;52267;51.984;20.956;2022-12-07T23:56:25;12.90;;;6.10;;
65597;SDS011;52267;51.984;20.956;2022-12-07T23:58:55;13.30;;;7.60;;
